createdAt,value
2023-01-11T00:01:33.400Z,2.87
2023-01-11T00:04:37.072Z,3.00
2023-01-11T00:07:41.311Z,2.53
2023-01-11T00:10:44.993Z,3.50
2023-01-11T00:13:50.069Z,3.27
2023-01-11T00:16:53.749Z,3.10
2023-01-11T00:19:57.348Z,3.27
2023-01-11T00:23:01.124Z,3.63
2023-01-11T00:26:05.467Z,3.33
2023-01-11T00:29:11.013Z,3.43
2023-01-11T00:32:14.595Z,3.20
2023-01-11T00:35:18.833Z,3.00
2023-01-11T00:38:37.669Z,3.40
2023-01-11T00:41:58.390Z,3.10
2023-01-11T00:45:19.712Z,2.90
2023-01-11T00:48:23.626Z,2.60
2023-01-11T00:51:27.428Z,2.80
2023-01-11T00:54:31.014Z,2.60
2023-01-11T00:57:34.679Z,2.87
2023-01-11T01:00:40.608Z,3.27
2023-01-11T01:03:44.253Z,2.73
2023-01-11T01:06:47.843Z,2.70
2023-01-11T01:09:51.534Z,3.13
2023-01-11T01:13:12.530Z,3.23
2023-01-11T01:16:17.710Z,3.33
2023-01-11T01:19:22.452Z,3.50
2023-01-11T01:22:26.132Z,3.77
2023-01-11T01:25:29.797Z,2.93
2023-01-11T01:28:33.887Z,2.90
2023-01-11T01:31:38.959Z,3.50
2023-01-11T01:34:42.660Z,3.50
2023-01-11T01:37:46.438Z,3.47
2023-01-11T01:40:50.443Z,3.47
2023-01-11T01:43:56.822Z,3.33
2023-01-11T01:47:05.576Z,3.70
2023-01-11T01:50:17.542Z,4.33
2023-01-11T01:53:27.378Z,3.33
2023-01-11T01:56:38.026Z,3.10
2023-01-11T01:59:42.775Z,3.20
2023-01-11T02:02:50.393Z,3.70
2023-01-11T02:05:56.044Z,3.50
2023-01-11T02:09:06.859Z,2.97
2023-01-11T02:12:10.747Z,3.40
2023-01-11T02:15:15.933Z,3.57
2023-01-11T02:18:21.559Z,3.83
2023-01-11T02:21:38.816Z,3.70
2023-01-11T02:25:33.966Z,3.90
2023-01-11T02:28:45.585Z,4.33
2023-01-11T02:32:01.543Z,3.73
2023-01-11T02:35:22.158Z,4.00
2023-01-11T02:38:34.841Z,3.37
2023-01-11T02:42:04.065Z,3.57
2023-01-11T02:45:25.131Z,4.17
2023-01-11T02:48:36.848Z,3.83
2023-01-11T02:51:48.864Z,3.73
2023-01-11T02:55:00.317Z,4.00
2023-01-11T02:58:09.163Z,3.80
2023-01-11T03:01:15.663Z,3.67
2023-01-11T03:04:31.041Z,3.73
2023-01-11T03:08:00.086Z,4.20
2023-01-11T03:11:08.885Z,3.50
2023-01-11T03:14:28.513Z,4.07
2023-01-11T03:17:50.232Z,3.03
2023-01-11T03:21:05.946Z,3.27
2023-01-11T03:24:22.699Z,3.40
2023-01-11T03:27:40.806Z,3.40
2023-01-11T03:30:53.948Z,3.40
2023-01-11T03:34:12.958Z,3.37
2023-01-11T03:37:24.453Z,3.30
2023-01-11T03:40:34.001Z,3.43
2023-01-11T03:43:44.034Z,3.43
2023-01-11T03:46:54.953Z,3.30
2023-01-11T03:50:05.987Z,3.60
2023-01-11T03:53:12.263Z,3.80
2023-01-11T03:56:23.931Z,3.60
2023-01-11T03:59:29.091Z,3.97
2023-01-11T04:02:40.216Z,3.90
2023-01-11T04:05:52.019Z,3.20
2023-01-11T04:08:55.755Z,3.83
2023-01-11T04:11:59.338Z,3.97
2023-01-11T04:15:03.308Z,4.60
2023-01-11T04:18:07.704Z,3.40
2023-01-11T04:21:12.813Z,3.83
2023-01-11T04:24:18.482Z,3.43
2023-01-11T04:27:22.117Z,3.30
2023-01-11T04:30:25.746Z,3.77
2023-01-11T04:33:29.538Z,3.60
2023-01-11T04:36:34.507Z,4.13
2023-01-11T04:39:38.159Z,4.07
2023-01-11T04:42:41.751Z,3.77
2023-01-11T04:45:45.408Z,4.13
2023-01-11T04:48:49.034Z,4.70
2023-01-11T04:51:55.094Z,5.07
2023-01-11T04:54:59.406Z,4.27
2023-01-11T04:58:03.320Z,4.10
2023-01-11T05:01:11.565Z,3.70
2023-01-11T05:04:15.323Z,3.93
2023-01-11T05:07:21.396Z,3.47
2023-01-11T05:10:25.090Z,3.90
2023-01-11T05:13:42.700Z,3.60
2023-01-11T05:16:46.444Z,3.80
2023-01-11T05:19:50.642Z,3.73
2023-01-11T05:22:55.744Z,4.17
2023-01-11T05:25:59.592Z,3.80
2023-01-11T05:29:07.939Z,3.83
2023-01-11T05:32:12.299Z,4.10
2023-01-11T05:35:16.281Z,3.73
2023-01-11T05:38:21.293Z,4.10
2023-01-11T05:41:27.749Z,4.17
2023-01-11T05:44:58.247Z,3.87
2023-01-11T05:48:02.145Z,4.70
2023-01-11T05:51:05.948Z,4.17
2023-01-11T05:54:14.195Z,4.57
2023-01-11T05:57:17.870Z,4.47
2023-01-11T06:00:25.450Z,4.30
2023-01-11T06:03:29.346Z,4.73
2023-01-11T06:06:33.874Z,4.93
2023-01-11T06:09:38.900Z,4.53
2023-01-11T06:12:42.673Z,4.90
2023-01-11T06:15:46.343Z,5.67
2023-01-11T06:18:52.631Z,5.90
2023-01-11T06:21:56.459Z,5.57
2023-01-11T06:25:01.681Z,5.57
2023-01-11T06:28:05.815Z,6.07
2023-01-11T06:31:10.041Z,6.60
2023-01-11T06:34:13.919Z,5.57
2023-01-11T06:37:17.791Z,5.63
2023-01-11T06:40:23.258Z,5.97
2023-01-11T06:43:29.283Z,5.40
2023-01-11T06:46:33.843Z,5.40
2023-01-11T06:49:37.820Z,5.60
2023-01-11T06:52:41.721Z,6.20
2023-01-11T06:55:50.416Z,5.83
2023-01-11T06:58:54.162Z,5.83
2023-01-11T07:01:58.880Z,5.63
2023-01-11T07:05:02.611Z,6.13
2023-01-11T07:08:07.020Z,6.07
2023-01-11T07:11:12.455Z,6.63
2023-01-11T07:14:20.066Z,6.50
2023-01-11T07:17:23.852Z,6.50
2023-01-11T07:20:28.566Z,6.73
2023-01-11T07:23:32.307Z,6.63
2023-01-11T07:26:41.486Z,7.33
2023-01-11T07:29:45.261Z,6.63
2023-01-11T07:32:49.038Z,7.00
2023-01-11T07:35:52.896Z,7.30
2023-01-11T07:38:56.759Z,7.50
2023-01-11T07:42:15.839Z,8.20
2023-01-11T07:45:47.022Z,8.00
2023-01-11T07:48:51.146Z,7.50
2023-01-11T07:51:55.068Z,7.67
2023-01-11T07:55:02.643Z,8.70
2023-01-11T07:58:08.828Z,8.80
2023-01-11T08:01:12.640Z,6.70
2023-01-11T08:04:17.054Z,4.63
2023-01-11T08:07:20.861Z,3.90
2023-01-11T08:10:25.048Z,3.13
2023-01-11T08:13:47.771Z,2.43
2023-01-11T08:16:51.895Z,1.80
2023-01-11T08:19:56.313Z,1.40
2023-01-11T08:23:04.911Z,1.73
2023-01-11T08:26:08.998Z,1.63
2023-01-11T08:29:14.271Z,1.20
2023-01-11T08:32:18.107Z,1.37
2023-01-11T08:35:21.970Z,1.47
2023-01-11T08:38:25.709Z,2.17
2023-01-11T08:41:29.650Z,1.47
2023-01-11T08:44:35.089Z,1.63
2023-01-11T08:47:39.087Z,1.73
2023-01-11T08:50:44.090Z,2.10
2023-01-11T08:53:48.021Z,1.90
2023-01-11T08:56:52.048Z,1.90
2023-01-11T08:59:57.223Z,2.33
2023-01-11T09:03:02.943Z,2.13
2023-01-11T09:06:07.388Z,2.23
2023-01-11T09:09:11.345Z,2.07
2023-01-11T09:12:15.483Z,2.00
2023-01-11T09:15:34.482Z,2.60
2023-01-11T09:18:38.118Z,2.90
2023-01-11T09:21:41.846Z,2.90
2023-01-11T09:24:45.988Z,3.17
2023-01-11T09:27:52.364Z,4.00
2023-01-11T09:30:57.425Z,4.73
2023-01-11T09:34:01.139Z,4.10
2023-01-11T09:37:07.398Z,2.90
2023-01-11T09:40:19.729Z,2.80
2023-01-11T09:43:30.342Z,2.70
2023-01-11T09:46:39.104Z,3.43
2023-01-11T09:49:51.007Z,3.33
2023-01-11T09:53:00.135Z,3.30
2023-01-11T09:56:07.888Z,3.23
2023-01-11T09:59:25.108Z,3.53
2023-01-11T10:02:47.403Z,3.37
2023-01-11T10:06:15.214Z,3.17
2023-01-11T10:18:28.491Z,4.33
2023-01-11T10:20:34.697Z,4.73
2023-01-11T10:23:50.806Z,4.07
2023-01-11T10:27:00.186Z,4.40
2023-01-11T10:30:33.473Z,4.30
2023-01-11T10:34:09.334Z,5.40
2023-01-11T10:37:36.227Z,5.40
2023-01-11T10:41:06.869Z,5.37
2023-01-11T10:44:26.869Z,6.20
2023-01-11T10:47:39.882Z,6.17
2023-01-11T10:50:53.068Z,5.90
2023-01-11T10:54:12.457Z,7.33
2023-01-11T10:57:26.509Z,5.07
2023-01-11T11:00:39.953Z,4.77
2023-01-11T11:04:07.794Z,4.13
2023-01-11T11:07:20.885Z,3.93
2023-01-11T11:10:36.918Z,3.33
2023-01-11T11:13:55.093Z,3.20
2023-01-11T11:17:14.554Z,3.30
2023-01-11T11:20:21.819Z,2.63
2023-01-11T11:23:28.770Z,2.30
2023-01-11T11:26:38.842Z,2.70
2023-01-11T11:29:49.985Z,2.77
2023-01-11T11:33:02.020Z,2.53
2023-01-11T11:36:08.913Z,2.93
2023-01-11T11:39:21.484Z,2.70
2023-01-11T11:42:27.774Z,3.23
2023-01-11T11:45:36.578Z,2.00
2023-01-11T11:48:40.255Z,2.33
2023-01-11T11:51:46.996Z,2.73
2023-01-11T11:54:56.884Z,3.40
2023-01-11T11:58:09.659Z,2.83
2023-01-11T12:01:31.775Z,2.77
2023-01-11T12:04:47.382Z,2.73
2023-01-11T12:07:55.562Z,3.43
2023-01-11T12:11:04.834Z,3.20
2023-01-11T12:14:22.610Z,3.87
2023-01-11T12:17:27.464Z,3.80
2023-01-11T12:20:42.513Z,4.00
2023-01-11T12:23:46.300Z,4.20
2023-01-11T12:27:09.429Z,3.90
2023-01-11T12:30:29.906Z,4.93
2023-01-11T12:33:46.729Z,3.47
2023-01-11T12:37:01.209Z,3.60
2023-01-11T12:40:18.890Z,3.60
2023-01-11T12:43:47.703Z,3.10
2023-01-11T12:47:33.608Z,3.10
2023-01-11T12:50:56.152Z,2.43
2023-01-11T12:54:25.658Z,2.50
2023-01-11T12:57:41.759Z,2.40
2023-01-11T13:01:16.295Z,2.17
2023-01-11T13:04:51.193Z,2.40
2023-01-11T13:08:11.841Z,2.93
2023-01-11T13:11:37.648Z,2.50
2023-01-11T13:15:04.847Z,2.03
2023-01-11T13:18:22.125Z,2.60
2023-01-11T13:21:35.763Z,2.10
2023-01-11T13:24:42.618Z,1.83
2023-01-11T13:27:49.710Z,2.10
2023-01-11T13:30:53.789Z,2.30
2023-01-11T13:34:06.622Z,1.90
2023-01-11T13:37:19.244Z,2.17
2023-01-11T13:40:27.697Z,1.93
2023-01-11T13:43:42.589Z,2.20
2023-01-11T13:47:01.030Z,2.13
2023-01-11T13:50:13.583Z,2.20
2023-01-11T13:53:29.689Z,2.30
2023-01-11T13:56:40.733Z,2.10
2023-01-11T13:59:51.557Z,2.50
2023-01-11T14:03:05.018Z,2.00
2023-01-11T14:06:44.005Z,2.53
2023-01-11T14:10:20.597Z,1.90
2023-01-11T14:14:18.170Z,1.97
2023-01-11T14:17:48.019Z,2.10
2023-01-11T14:21:05.730Z,2.47
2023-01-11T14:24:12.297Z,2.37
2023-01-11T14:27:42.615Z,2.10
2023-01-11T14:31:30.574Z,2.70
2023-01-11T14:35:13.031Z,2.90
2023-01-11T14:39:05.331Z,2.50
2023-01-11T14:43:00.317Z,2.63
2023-01-11T14:46:40.860Z,2.30
2023-01-11T14:50:05.200Z,3.30
2023-01-11T14:53:17.057Z,3.07
2023-01-11T14:56:49.152Z,3.00
2023-01-11T14:59:52.926Z,2.53
2023-01-11T15:03:38.557Z,3.33
2023-01-11T15:06:56.053Z,4.10
2023-01-11T15:10:03.146Z,3.97
2023-01-11T15:13:13.021Z,4.63
2023-01-11T15:16:42.048Z,2.67
2023-01-11T15:19:49.881Z,3.50
2023-01-11T15:22:59.630Z,2.77
2023-01-11T15:26:06.784Z,2.87
2023-01-11T15:29:24.615Z,3.13
2023-01-11T15:32:32.424Z,3.27
2023-01-11T15:35:37.795Z,3.23
2023-01-11T15:38:52.176Z,2.17
2023-01-11T15:42:17.092Z,2.90
2023-01-11T15:46:22.494Z,2.63
2023-01-11T15:50:18.457Z,2.53
2023-01-11T15:54:04.623Z,2.80
2023-01-11T15:57:47.009Z,3.43
2023-01-11T16:01:22.852Z,3.47
2023-01-11T16:04:33.251Z,2.53
2023-01-11T16:07:45.227Z,3.30
2023-01-11T16:11:17.028Z,2.93
2023-01-11T16:15:07.406Z,3.07
2023-01-11T16:18:20.747Z,3.10
2023-01-11T16:21:34.482Z,2.70
2023-01-11T16:24:46.549Z,2.83
2023-01-11T16:27:57.525Z,2.83
2023-01-11T16:31:04.847Z,2.87
2023-01-11T16:34:09.020Z,3.33
2023-01-11T16:37:28.773Z,5.20
2023-01-11T16:40:38.882Z,3.20
2023-01-11T16:43:54.902Z,5.60
2023-01-11T16:47:18.115Z,6.97
2023-01-11T16:50:25.325Z,5.73
2023-01-11T16:53:31.515Z,4.93
2023-01-11T16:56:36.883Z,4.30
2023-01-11T16:59:41.903Z,4.30
2023-01-11T17:02:48.939Z,3.87
2023-01-11T17:06:16.756Z,3.50
2023-01-11T17:09:22.341Z,3.67
2023-01-11T17:12:27.698Z,3.57
2023-01-11T17:15:55.948Z,4.43
2023-01-11T17:19:07.044Z,4.03
2023-01-11T17:22:23.016Z,4.60
2023-01-11T17:25:44.016Z,4.40
2023-01-11T17:28:52.443Z,4.80
2023-01-11T17:31:59.426Z,4.90
2023-01-11T17:35:06.929Z,5.07
2023-01-11T17:38:18.430Z,3.60
2023-01-11T17:41:40.408Z,5.63
2023-01-11T17:45:03.384Z,4.30
2023-01-11T17:48:15.548Z,5.17
2023-01-11T17:51:27.820Z,4.43
2023-01-11T17:54:32.239Z,4.20
2023-01-11T17:57:36.157Z,4.80
2023-01-11T18:00:41.687Z,4.57
2023-01-11T18:03:49.148Z,3.93
2023-01-11T18:06:57.233Z,4.63
2023-01-11T18:10:03.585Z,4.90
2023-01-11T18:13:23.237Z,4.97
2023-01-11T18:16:28.796Z,4.10
2023-01-11T18:19:40.138Z,4.10
2023-01-11T18:23:03.993Z,4.07
2023-01-11T18:26:32.117Z,3.83
2023-01-11T18:29:50.798Z,3.97
2023-01-11T18:32:54.592Z,4.50
2023-01-11T18:36:03.226Z,4.13
2023-01-11T18:39:12.381Z,4.20
2023-01-11T18:42:21.309Z,4.67
2023-01-11T18:45:28.547Z,5.40
2023-01-11T18:48:33.098Z,4.33
2023-01-11T18:51:41.694Z,5.17
2023-01-11T18:54:46.053Z,4.63
2023-01-11T18:57:49.959Z,4.00
2023-01-11T19:00:53.978Z,3.77
2023-01-11T19:03:57.892Z,3.43
2023-01-11T19:07:03.170Z,4.50
2023-01-11T19:10:08.343Z,3.97
2023-01-11T19:13:13.351Z,4.07
2023-01-11T19:16:17.105Z,3.70
2023-01-11T19:19:22.145Z,3.77
2023-01-11T19:22:27.681Z,2.83
2023-01-11T19:25:31.562Z,5.47
2023-01-11T19:28:35.712Z,3.80
2023-01-11T19:31:40.877Z,3.10
2023-01-11T19:34:45.142Z,3.90
2023-01-11T19:37:50.490Z,3.43
2023-01-11T19:40:54.237Z,4.40
2023-01-11T19:43:58.186Z,4.17
2023-01-11T19:47:11.967Z,4.37
2023-01-11T19:50:17.786Z,3.57
2023-01-11T19:53:23.096Z,3.50
2023-01-11T19:56:26.878Z,3.40
2023-01-11T19:59:31.103Z,4.33
2023-01-11T20:02:34.980Z,4.50
2023-01-11T20:05:38.881Z,3.63
2023-01-11T20:08:44.111Z,4.03
2023-01-11T20:11:49.474Z,4.37
2023-01-11T20:14:56.950Z,4.23
2023-01-11T20:18:02.340Z,4.23
2023-01-11T20:21:06.785Z,4.33
2023-01-11T20:24:15.205Z,3.80
2023-01-11T20:27:19.004Z,4.00
2023-01-11T20:30:22.891Z,4.40
2023-01-11T20:33:27.729Z,4.00
2023-01-11T20:36:31.710Z,3.70
2023-01-11T20:39:37.194Z,3.57
2023-01-11T20:42:41.165Z,3.13
2023-01-11T20:45:44.992Z,3.87
2023-01-11T20:48:50.140Z,2.90
2023-01-11T20:51:56.542Z,3.50
2023-01-11T20:55:01.850Z,4.43
2023-01-11T20:58:06.282Z,3.43
2023-01-11T21:01:12.309Z,3.47
2023-01-11T21:04:17.007Z,3.57
2023-01-11T21:07:21.037Z,3.20
2023-01-11T21:10:26.312Z,3.53
2023-01-11T21:13:30.129Z,3.00
2023-01-11T21:16:34.159Z,2.90
2023-01-11T21:19:38.044Z,2.80
2023-01-11T21:22:41.920Z,2.83
2023-01-11T21:25:47.105Z,3.17
2023-01-11T21:28:54.491Z,2.30
2023-01-11T21:31:58.673Z,2.50
2023-01-11T21:35:02.763Z,2.70
2023-01-11T21:38:06.682Z,2.77
2023-01-11T21:41:14.643Z,2.80
2023-01-11T21:44:20.292Z,2.80
2023-01-11T21:47:24.087Z,2.60
2023-01-11T21:50:27.958Z,2.83
2023-01-11T21:53:33.490Z,2.87
2023-01-11T21:56:39.298Z,3.00
2023-01-11T21:59:43.107Z,2.53
2023-01-11T22:02:50.639Z,2.30
2023-01-11T22:05:54.780Z,3.40
2023-01-11T22:08:58.583Z,2.20
2023-01-11T22:12:03.731Z,2.80
2023-01-11T22:15:27.665Z,3.23
2023-01-11T22:18:32.623Z,3.17
2023-01-11T22:21:37.916Z,2.67
2023-01-11T22:24:41.857Z,2.70
2023-01-11T22:27:47.066Z,2.60
2023-01-11T22:30:50.933Z,2.47
2023-01-11T22:33:56.013Z,2.40
2023-01-11T22:36:59.788Z,2.43
2023-01-11T22:40:03.643Z,2.40
2023-01-11T22:43:09.238Z,2.23
2023-01-11T22:46:17.218Z,1.90
2023-01-11T22:49:21.218Z,2.47
2023-01-11T22:52:25.080Z,2.40
2023-01-11T22:55:28.821Z,2.23
2023-01-11T22:58:35.086Z,2.50
2023-01-11T23:01:41.524Z,2.53
2023-01-11T23:04:45.769Z,2.23
2023-01-11T23:07:49.472Z,1.90
2023-01-11T23:10:53.343Z,2.50
2023-01-11T23:14:02.057Z,2.07
2023-01-11T23:17:07.640Z,2.10
2023-01-11T23:20:13.509Z,2.33
2023-01-11T23:23:17.377Z,2.40
2023-01-11T23:26:21.250Z,2.30
2023-01-11T23:29:26.441Z,2.03
2023-01-11T23:32:30.298Z,2.20
2023-01-11T23:35:34.216Z,2.00
2023-01-11T23:38:38.077Z,2.23
2023-01-11T23:42:01.889Z,2.00
2023-01-11T23:45:08.770Z,2.10
2023-01-11T23:48:11.700Z,2.27
2023-01-11T23:51:15.462Z,2.00
2023-01-11T23:54:19.345Z,2.20
2023-01-11T23:57:25.410Z,1.87
